sensor_id;sensor_type;location;lat;lon;timestamp;temperature;humidity
4755;DHT22;2391;47.212;7.542;2023-02-28T00:01:22;1.50;87.00
4755;DHT22;2391;47.212;7.542;2023-02-28T00:03:48;1.40;86.40
4755;DHT22;2391;47.212;7.542;2023-02-28T00:06:14;1.40;86.60
4755;DHT22;2391;47.212;7.542;2023-02-28T00:08:40;1.40;86.60
4755;DHT22;2391;47.212;7.542;2023-02-28T00:11:09;1.40;86.60
4755;DHT22;2391;47.212;7.542;2023-02-28T00:13:39;1.50;86.70
4755;DHT22;2391;47.212;7.542;2023-02-28T00:16:08;1.40;86.50
4755;DHT22;2391;47.212;7.542;2023-02-28T00:18:34;1.40;86.60
4755;DHT22;2391;47.212;7.542;2023-02-28T00:21:00;1.40;86.80
4755;DHT22;2391;47.212;7.542;2023-02-28T00:23:27;1.50;86.70
4755;DHT22;2391;47.212;7.542;2023-02-28T00:25:53;1.40;86.60
4755;DHT22;2391;47.212;7.542;2023-02-28T00:28:19;1.30;87.00
4755;DHT22;2391;47.212;7.542;2023-02-28T00:30:45;1.20;87.10
4755;DHT22;2391;47.212;7.542;2023-02-28T00:33:11;1.10;87.30
4755;DHT22;2391;47.212;7.542;2023-02-28T00:35:37;1.10;87.70
4755;DHT22;2391;47.212;7.542;2023-02-28T00:38:03;1.10;87.80
4755;DHT22;2391;47.212;7.542;2023-02-28T00:40:29;1.10;87.80
4755;DHT22;2391;47.212;7.542;2023-02-28T00:42:54;1.20;88.00
4755;DHT22;2391;47.212;7.542;2023-02-28T00:45:20;1.20;87.90
4755;DHT22;2391;47.212;7.542;2023-02-28T00:47:46;1.10;87.90
4755;DHT22;2391;47.212;7.542;2023-02-28T00:50:14;1.10;88.00
4755;DHT22;2391;47.212;7.542;2023-02-28T00:52:40;1.10;88.30
4755;DHT22;2391;47.212;7.542;2023-02-28T00:55:06;1.10;88.40
4755;DHT22;2391;47.212;7.542;2023-02-28T00:57:32;1.10;88.10
4755;DHT22;2391;47.212;7.542;2023-02-28T00:59:57;1.30;88.30
4755;DHT22;2391;47.212;7.542;2023-02-28T01:02:23;1.30;87.90
4755;DHT22;2391;47.212;7.542;2023-02-28T01:04:49;1.40;87.80
4755;DHT22;2391;47.212;7.542;2023-02-28T01:07:14;1.40;87.80
4755;DHT22;2391;47.212;7.542;2023-02-28T01:09:41;1.40;87.90
4755;DHT22;2391;47.212;7.542;2023-02-28T01:12:08;1.40;87.90
4755;DHT22;2391;47.212;7.542;2023-02-28T01:14:34;1.40;87.90
4755;DHT22;2391;47.212;7.542;2023-02-28T01:17:00;1.40;87.90
4755;DHT22;2391;47.212;7.542;2023-02-28T01:19:27;1.30;88.10
4755;DHT22;2391;47.212;7.542;2023-02-28T01:21:52;1.30;88.10
4755;DHT22;2391;47.212;7.542;2023-02-28T01:24:18;1.20;88.10
4755;DHT22;2391;47.212;7.542;2023-02-28T01:26:44;1.20;88.50
4755;DHT22;2391;47.212;7.542;2023-02-28T01:29:10;1.20;88.50
4755;DHT22;2391;47.212;7.542;2023-02-28T01:31:36;1.20;88.60
4755;DHT22;2391;47.212;7.542;2023-02-28T01:34:02;1.30;88.70
4755;DHT22;2391;47.212;7.542;2023-02-28T01:36:28;1.40;88.40
4755;DHT22;2391;47.212;7.542;2023-02-28T01:38:54;1.40;88.30
4755;DHT22;2391;47.212;7.542;2023-02-28T01:41:30;1.40;88.30
4755;DHT22;2391;47.212;7.542;2023-02-28T01:43:55;1.30;88.50
4755;DHT22;2391;47.212;7.542;2023-02-28T01:46:21;1.30;88.60
4755;DHT22;2391;47.212;7.542;2023-02-28T01:49:04;1.40;88.50
4755;DHT22;2391;47.212;7.542;2023-02-28T01:54:04;1.60;88.20
4755;DHT22;2391;47.212;7.542;2023-02-28T01:56:33;1.50;88.00
4755;DHT22;2391;47.212;7.542;2023-02-28T01:59:00;1.50;87.90
4755;DHT22;2391;47.212;7.542;2023-02-28T02:01:28;1.50;88.00
4755;DHT22;2391;47.212;7.542;2023-02-28T02:03:57;1.50;87.90
4755;DHT22;2391;47.212;7.542;2023-02-28T02:06:37;1.50;88.20
4755;DHT22;2391;47.212;7.542;2023-02-28T02:08:59;1.40;88.30
4755;DHT22;2391;47.212;7.542;2023-02-28T02:11:25;1.40;88.30
4755;DHT22;2391;47.212;7.542;2023-02-28T02:14:02;1.50;88.10
4755;DHT22;2391;47.212;7.542;2023-02-28T02:16:52;1.40;88.20
4755;DHT22;2391;47.212;7.542;2023-02-28T02:41:46;1.40;88.60
4755;DHT22;2391;47.212;7.542;2023-02-28T02:46:53;1.30;88.70
4755;DHT22;2391;47.212;7.542;2023-02-28T02:49:25;1.20;88.70
4755;DHT22;2391;47.212;7.542;2023-02-28T02:51:53;1.20;88.90
4755;DHT22;2391;47.212;7.542;2023-02-28T02:54:23;1.20;89.10
4755;DHT22;2391;47.212;7.542;2023-02-28T02:56:52;1.20;89.00
4755;DHT22;2391;47.212;7.542;2023-02-28T02:59:20;1.20;89.00
4755;DHT22;2391;47.212;7.542;2023-02-28T03:01:49;1.20;88.90
4755;DHT22;2391;47.212;7.542;2023-02-28T03:04:18;1.20;89.10
4755;DHT22;2391;47.212;7.542;2023-02-28T03:06:44;1.20;89.00
4755;DHT22;2391;47.212;7.542;2023-02-28T03:09:10;1.20;89.10
4755;DHT22;2391;47.212;7.542;2023-02-28T03:11:37;1.20;89.10
4755;DHT22;2391;47.212;7.542;2023-02-28T03:14:18;1.20;89.00
4755;DHT22;2391;47.212;7.542;2023-02-28T03:28:05;1.30;88.80
4755;DHT22;2391;47.212;7.542;2023-02-28T03:30:42;1.30;88.80
4755;DHT22;2391;47.212;7.542;2023-02-28T03:33:21;1.40;88.80
4755;DHT22;2391;47.212;7.542;2023-02-28T03:36:02;1.50;88.80
4755;DHT22;2391;47.212;7.542;2023-02-28T03:38:40;1.50;88.50
4755;DHT22;2391;47.212;7.542;2023-02-28T03:41:15;1.50;88.50
4755;DHT22;2391;47.212;7.542;2023-02-28T03:43:47;1.50;88.50
4755;DHT22;2391;47.212;7.542;2023-02-28T03:46:13;1.50;88.60
4755;DHT22;2391;47.212;7.542;2023-02-28T03:48:43;1.40;88.60
4755;DHT22;2391;47.212;7.542;2023-02-28T03:51:13;1.40;88.60
4755;DHT22;2391;47.212;7.542;2023-02-28T03:53:42;1.40;88.80
4755;DHT22;2391;47.212;7.542;2023-02-28T03:56:23;1.40;88.80
4755;DHT22;2391;47.212;7.542;2023-02-28T03:59:13;1.30;88.60
4755;DHT22;2391;47.212;7.542;2023-02-28T04:01:40;1.30;88.80
4755;DHT22;2391;47.212;7.542;2023-02-28T04:04:08;1.30;89.00
4755;DHT22;2391;47.212;7.542;2023-02-28T04:06:34;1.30;88.80
4755;DHT22;2391;47.212;7.542;2023-02-28T04:09:01;1.30;89.10
4755;DHT22;2391;47.212;7.542;2023-02-28T04:14:10;1.20;89.20
4755;DHT22;2391;47.212;7.542;2023-02-28T04:16:39;1.30;89.30
4755;DHT22;2391;47.212;7.542;2023-02-28T04:19:07;1.30;89.20
4755;DHT22;2391;47.212;7.542;2023-02-28T04:21:38;1.40;89.00
4755;DHT22;2391;47.212;7.542;2023-02-28T04:24:05;1.40;89.00
4755;DHT22;2391;47.212;7.542;2023-02-28T04:26:33;1.50;89.00
4755;DHT22;2391;47.212;7.542;2023-02-28T04:29:01;1.50;88.90
4755;DHT22;2391;47.212;7.542;2023-02-28T04:31:27;1.50;88.80
4755;DHT22;2391;47.212;7.542;2023-02-28T04:33:53;1.60;88.70
4755;DHT22;2391;47.212;7.542;2023-02-28T04:36:18;1.60;88.60
4755;DHT22;2391;47.212;7.542;2023-02-28T04:38:45;1.50;88.60
4755;DHT22;2391;47.212;7.542;2023-02-28T04:41:12;1.50;88.90
4755;DHT22;2391;47.212;7.542;2023-02-28T04:43:38;1.40;89.00
4755;DHT22;2391;47.212;7.542;2023-02-28T04:46:05;1.50;89.20
4755;DHT22;2391;47.212;7.542;2023-02-28T04:48:33;1.50;89.20
4755;DHT22;2391;47.212;7.542;2023-02-28T04:51:03;1.50;89.00
4755;DHT22;2391;47.212;7.542;2023-02-28T04:53:30;1.50;88.70
4755;DHT22;2391;47.212;7.542;2023-02-28T04:55:57;1.50;88.70
4755;DHT22;2391;47.212;7.542;2023-02-28T04:58:23;1.50;88.90
4755;DHT22;2391;47.212;7.542;2023-02-28T05:00:50;1.40;88.70
4755;DHT22;2391;47.212;7.542;2023-02-28T05:03:16;1.40;88.70
4755;DHT22;2391;47.212;7.542;2023-02-28T05:05:42;1.30;88.80
4755;DHT22;2391;47.212;7.542;2023-02-28T05:08:07;1.30;89.00
4755;DHT22;2391;47.212;7.542;2023-02-28T05:10:35;1.30;89.00
4755;DHT22;2391;47.212;7.542;2023-02-28T05:13:01;1.10;89.30
4755;DHT22;2391;47.212;7.542;2023-02-28T05:15:27;1.10;89.60
4755;DHT22;2391;47.212;7.542;2023-02-28T05:17:52;1.10;89.80
4755;DHT22;2391;47.212;7.542;2023-02-28T05:20:18;1.10;90.00
4755;DHT22;2391;47.212;7.542;2023-02-28T05:22:44;1.10;90.00
4755;DHT22;2391;47.212;7.542;2023-02-28T05:25:13;1.10;90.00
4755;DHT22;2391;47.212;7.542;2023-02-28T05:27:40;1.20;90.00
4755;DHT22;2391;47.212;7.542;2023-02-28T05:30:07;1.20;89.70
4755;DHT22;2391;47.212;7.542;2023-02-28T05:32:39;1.20;89.80
4755;DHT22;2391;47.212;7.542;2023-02-28T05:35:07;1.20;89.70
4755;DHT22;2391;47.212;7.542;2023-02-28T05:37:33;1.20;89.70
4755;DHT22;2391;47.212;7.542;2023-02-28T05:39:58;1.20;89.90
4755;DHT22;2391;47.212;7.542;2023-02-28T05:42:24;1.20;89.90
4755;DHT22;2391;47.212;7.542;2023-02-28T05:44:50;1.10;89.90
4755;DHT22;2391;47.212;7.542;2023-02-28T05:47:17;1.10;89.90
4755;DHT22;2391;47.212;7.542;2023-02-28T05:49:43;1.10;90.00
4755;DHT22;2391;47.212;7.542;2023-02-28T05:52:08;1.00;90.00
4755;DHT22;2391;47.212;7.542;2023-02-28T05:54:34;1.00;90.10
4755;DHT22;2391;47.212;7.542;2023-02-28T05:57:00;0.90;90.10
4755;DHT22;2391;47.212;7.542;2023-02-28T05:59:26;0.90;90.10
4755;DHT22;2391;47.212;7.542;2023-02-28T06:01:52;1.00;90.20
4755;DHT22;2391;47.212;7.542;2023-02-28T06:04:20;1.00;90.10
4755;DHT22;2391;47.212;7.542;2023-02-28T06:06:50;1.10;90.10
4755;DHT22;2391;47.212;7.542;2023-02-28T06:09:17;1.20;89.90
4755;DHT22;2391;47.212;7.542;2023-02-28T06:11:43;1.10;90.00
4755;DHT22;2391;47.212;7.542;2023-02-28T06:14:14;1.00;90.00
4755;DHT22;2391;47.212;7.542;2023-02-28T06:16:40;1.10;90.10
4755;DHT22;2391;47.212;7.542;2023-02-28T06:19:06;1.10;90.00
4755;DHT22;2391;47.212;7.542;2023-02-28T06:21:32;1.10;90.00
4755;DHT22;2391;47.212;7.542;2023-02-28T06:23:58;1.00;90.00
4755;DHT22;2391;47.212;7.542;2023-02-28T06:26:25;1.00;90.00
4755;DHT22;2391;47.212;7.542;2023-02-28T06:28:50;1.10;90.10
4755;DHT22;2391;47.212;7.542;2023-02-28T06:31:17;1.20;90.00
4755;DHT22;2391;47.212;7.542;2023-02-28T06:33:45;1.30;90.00
4755;DHT22;2391;47.212;7.542;2023-02-28T06:36:12;1.30;89.80
4755;DHT22;2391;47.212;7.542;2023-02-28T06:38:39;1.20;89.80
4755;DHT22;2391;47.212;7.542;2023-02-28T06:41:05;1.10;90.00
4755;DHT22;2391;47.212;7.542;2023-02-28T06:43:38;1.20;90.00
4755;DHT22;2391;47.212;7.542;2023-02-28T06:46:03;1.20;89.90
4755;DHT22;2391;47.212;7.542;2023-02-28T06:48:29;1.20;89.90
4755;DHT22;2391;47.212;7.542;2023-02-28T06:51:04;1.10;90.00
4755;DHT22;2391;47.212;7.542;2023-02-28T06:53:30;1.10;90.00
4755;DHT22;2391;47.212;7.542;2023-02-28T06:55:56;1.10;90.00
4755;DHT22;2391;47.212;7.542;2023-02-28T06:58:22;1.00;90.10
4755;DHT22;2391;47.212;7.542;2023-02-28T07:00:50;1.00;90.10
4755;DHT22;2391;47.212;7.542;2023-02-28T07:03:17;1.00;90.10
4755;DHT22;2391;47.212;7.542;2023-02-28T07:05:44;1.00;90.10
4755;DHT22;2391;47.212;7.542;2023-02-28T07:08:10;1.00;90.10
4755;DHT22;2391;47.212;7.542;2023-02-28T07:10:38;1.10;90.20
4755;DHT22;2391;47.212;7.542;2023-02-28T07:13:04;1.10;90.00
4755;DHT22;2391;47.212;7.542;2023-02-28T07:15:31;1.10;90.20
4755;DHT22;2391;47.212;7.542;2023-02-28T07:17:56;1.20;90.00
4755;DHT22;2391;47.212;7.542;2023-02-28T07:20:23;1.20;89.90
4755;DHT22;2391;47.212;7.542;2023-02-28T07:22:50;1.10;89.80
4755;DHT22;2391;47.212;7.542;2023-02-28T07:25:18;1.10;89.80
4755;DHT22;2391;47.212;7.542;2023-02-28T07:27:43;1.10;89.70
4755;DHT22;2391;47.212;7.542;2023-02-28T07:30:10;1.10;89.80
4755;DHT22;2391;47.212;7.542;2023-02-28T07:32:36;1.00;90.00
4755;DHT22;2391;47.212;7.542;2023-02-28T07:35:03;1.00;89.90
4755;DHT22;2391;47.212;7.542;2023-02-28T07:37:29;0.90;90.00
4755;DHT22;2391;47.212;7.542;2023-02-28T07:39:57;0.90;90.10
4755;DHT22;2391;47.212;7.542;2023-02-28T07:42:23;0.90;90.10
4755;DHT22;2391;47.212;7.542;2023-02-28T07:44:48;0.90;90.20
4755;DHT22;2391;47.212;7.542;2023-02-28T07:47:14;1.00;90.20
4755;DHT22;2391;47.212;7.542;2023-02-28T07:49:40;1.10;90.10
4755;DHT22;2391;47.212;7.542;2023-02-28T07:52:06;1.10;90.00
4755;DHT22;2391;47.212;7.542;2023-02-28T07:54:33;1.20;90.10
4755;DHT22;2391;47.212;7.542;2023-02-28T07:56:59;1.20;90.10
4755;DHT22;2391;47.212;7.542;2023-02-28T07:59:25;1.20;89.70
4755;DHT22;2391;47.212;7.542;2023-02-28T08:01:51;1.10;89.80
4755;DHT22;2391;47.212;7.542;2023-02-28T08:04:18;1.00;90.00
4755;DHT22;2391;47.212;7.542;2023-02-28T08:06:44;1.00;90.00
4755;DHT22;2391;47.212;7.542;2023-02-28T08:09:10;0.90;90.10
4755;DHT22;2391;47.212;7.542;2023-02-28T08:11:36;1.00;90.20
4755;DHT22;2391;47.212;7.542;2023-02-28T08:14:02;1.00;90.20
4755;DHT22;2391;47.212;7.542;2023-02-28T08:16:28;1.10;90.00
4755;DHT22;2391;47.212;7.542;2023-02-28T08:18:54;1.10;90.00
4755;DHT22;2391;47.212;7.542;2023-02-28T08:21:20;1.20;90.10
4755;DHT22;2391;47.212;7.542;2023-02-28T08:23:50;1.20;90.00
4755;DHT22;2391;47.212;7.542;2023-02-28T08:26:17;1.20;90.00
4755;DHT22;2391;47.212;7.542;2023-02-28T08:28:44;1.30;90.00
4755;DHT22;2391;47.212;7.542;2023-02-28T08:31:12;1.30;89.90
4755;DHT22;2391;47.212;7.542;2023-02-28T08:33:39;1.30;89.80
4755;DHT22;2391;47.212;7.542;2023-02-28T08:36:06;1.30;89.80
4755;DHT22;2391;47.212;7.542;2023-02-28T08:38:32;1.20;89.90
4755;DHT22;2391;47.212;7.542;2023-02-28T08:40:59;1.30;90.00
4755;DHT22;2391;47.212;7.542;2023-02-28T08:43:26;1.40;90.00
4755;DHT22;2391;47.212;7.542;2023-02-28T08:45:52;1.40;89.90
4755;DHT22;2391;47.212;7.542;2023-02-28T08:48:18;1.50;89.60
4755;DHT22;2391;47.212;7.542;2023-02-28T08:50:44;1.50;89.50
4755;DHT22;2391;47.212;7.542;2023-02-28T08:53:10;1.50;89.60
4755;DHT22;2391;47.212;7.542;2023-02-28T08:55:36;1.60;89.60
4755;DHT22;2391;47.212;7.542;2023-02-28T08:58:02;1.60;89.40
4755;DHT22;2391;47.212;7.542;2023-02-28T09:00:28;1.70;88.90
4755;DHT22;2391;47.212;7.542;2023-02-28T09:02:53;1.70;89.00
4755;DHT22;2391;47.212;7.542;2023-02-28T09:05:20;1.60;89.00
4755;DHT22;2391;47.212;7.542;2023-02-28T09:07:46;1.60;89.20
4755;DHT22;2391;47.212;7.542;2023-02-28T09:10:11;1.50;89.20
4755;DHT22;2391;47.212;7.542;2023-02-28T09:12:38;1.40;89.90
4755;DHT22;2391;47.212;7.542;2023-02-28T09:15:04;1.30;89.50
4755;DHT22;2391;47.212;7.542;2023-02-28T09:17:30;1.30;89.70
4755;DHT22;2391;47.212;7.542;2023-02-28T09:19:56;1.30;89.70
4755;DHT22;2391;47.212;7.542;2023-02-28T09:22:22;1.40;89.90
4755;DHT22;2391;47.212;7.542;2023-02-28T09:24:48;1.40;89.80
4755;DHT22;2391;47.212;7.542;2023-02-28T09:27:13;1.40;89.90
4755;DHT22;2391;47.212;7.542;2023-02-28T09:29:39;1.50;89.70
4755;DHT22;2391;47.212;7.542;2023-02-28T09:32:05;1.50;89.50
4755;DHT22;2391;47.212;7.542;2023-02-28T09:34:31;1.50;89.40
4755;DHT22;2391;47.212;7.542;2023-02-28T09:36:56;1.40;89.20
4755;DHT22;2391;47.212;7.542;2023-02-28T09:39:23;1.50;89.50
4755;DHT22;2391;47.212;7.542;2023-02-28T09:41:51;1.60;89.40
4755;DHT22;2391;47.212;7.542;2023-02-28T09:44:29;1.50;89.10
4755;DHT22;2391;47.212;7.542;2023-02-28T09:46:59;1.50;89.20
4755;DHT22;2391;47.212;7.542;2023-02-28T09:49:34;1.50;89.00
4755;DHT22;2391;47.212;7.542;2023-02-28T09:52:04;1.60;89.40
4755;DHT22;2391;47.212;7.542;2023-02-28T09:54:32;1.70;89.40
4755;DHT22;2391;47.212;7.542;2023-02-28T09:57:01;1.70;89.40
4755;DHT22;2391;47.212;7.542;2023-02-28T10:05:14;1.70;89.00
4755;DHT22;2391;47.212;7.542;2023-02-28T10:10:35;1.70;89.00
4755;DHT22;2391;47.212;7.542;2023-02-28T10:13:03;1.80;89.30
4755;DHT22;2391;47.212;7.542;2023-02-28T10:15:31;1.90;89.40
4755;DHT22;2391;47.212;7.542;2023-02-28T10:18:06;2.00;88.90
4755;DHT22;2391;47.212;7.542;2023-02-28T10:20:35;1.90;89.00
4755;DHT22;2391;47.212;7.542;2023-02-28T10:23:25;1.90;89.00
4755;DHT22;2391;47.212;7.542;2023-02-28T10:25:58;2.00;88.70
4755;DHT22;2391;47.212;7.542;2023-02-28T10:28:25;2.00;88.60
4755;DHT22;2391;47.212;7.542;2023-02-28T10:30:53;2.10;88.70
4755;DHT22;2391;47.212;7.542;2023-02-28T10:33:25;2.10;88.50
4755;DHT22;2391;47.212;7.542;2023-02-28T10:35:53;2.00;88.80
4755;DHT22;2391;47.212;7.542;2023-02-28T10:38:22;2.10;89.10
4755;DHT22;2391;47.212;7.542;2023-02-28T10:40:49;2.10;88.90
4755;DHT22;2391;47.212;7.542;2023-02-28T10:46:10;2.20;88.20
4755;DHT22;2391;47.212;7.542;2023-02-28T10:48:49;2.30;88.50
4755;DHT22;2391;47.212;7.542;2023-02-28T10:51:18;2.40;88.10
4755;DHT22;2391;47.212;7.542;2023-02-28T10:53:51;2.50;88.10
4755;DHT22;2391;47.212;7.542;2023-02-28T10:56:21;2.40;87.90
4755;DHT22;2391;47.212;7.542;2023-02-28T11:01:23;2.30;87.90
4755;DHT22;2391;47.212;7.542;2023-02-28T11:03:50;2.30;88.20
4755;DHT22;2391;47.212;7.542;2023-02-28T11:06:29;2.40;88.10
4755;DHT22;2391;47.212;7.542;2023-02-28T11:08:57;2.50;88.00
4755;DHT22;2391;47.212;7.542;2023-02-28T11:11:28;2.50;88.40
4755;DHT22;2391;47.212;7.542;2023-02-28T11:14:05;2.50;88.20
4755;DHT22;2391;47.212;7.542;2023-02-28T11:16:36;2.50;88.20
4755;DHT22;2391;47.212;7.542;2023-02-28T11:19:05;2.50;88.00
4755;DHT22;2391;47.212;7.542;2023-02-28T11:21:34;2.60;88.30
4755;DHT22;2391;47.212;7.542;2023-02-28T11:26:59;2.60;87.90
4755;DHT22;2391;47.212;7.542;2023-02-28T11:29:31;2.60;88.30
4755;DHT22;2391;47.212;7.542;2023-02-28T11:34:37;2.60;87.50
4755;DHT22;2391;47.212;7.542;2023-02-28T11:37:05;2.60;87.70
4755;DHT22;2391;47.212;7.542;2023-02-28T11:39:33;2.70;88.00
4755;DHT22;2391;47.212;7.542;2023-02-28T11:42:10;2.70;87.70
4755;DHT22;2391;47.212;7.542;2023-02-28T11:47:32;2.70;87.60
4755;DHT22;2391;47.212;7.542;2023-02-28T11:50:27;2.70;87.40
4755;DHT22;2391;47.212;7.542;2023-02-28T11:53:21;2.70;87.10
4755;DHT22;2391;47.212;7.542;2023-02-28T11:55:48;2.70;87.40
4755;DHT22;2391;47.212;7.542;2023-02-28T12:01:09;2.90;87.20
4755;DHT22;2391;47.212;7.542;2023-02-28T12:03:54;2.90;87.30
4755;DHT22;2391;47.212;7.542;2023-02-28T12:06:28;2.80;86.30
4755;DHT22;2391;47.212;7.542;2023-02-28T12:11:56;2.80;86.30
4755;DHT22;2391;47.212;7.542;2023-02-28T12:22:27;2.90;86.20
4755;DHT22;2391;47.212;7.542;2023-02-28T12:27:41;3.10;86.50
4755;DHT22;2391;47.212;7.542;2023-02-28T12:30:25;3.20;85.70
4755;DHT22;2391;47.212;7.542;2023-02-28T12:33:00;3.20;85.30
4755;DHT22;2391;47.212;7.542;2023-02-28T12:35:33;3.20;85.90
4755;DHT22;2391;47.212;7.542;2023-02-28T12:38:12;3.10;85.50
4755;DHT22;2391;47.212;7.542;2023-02-28T12:40:50;3.10;85.90
4755;DHT22;2391;47.212;7.542;2023-02-28T12:43:17;3.20;85.50
4755;DHT22;2391;47.212;7.542;2023-02-28T12:46:30;3.20;85.50
4755;DHT22;2391;47.212;7.542;2023-02-28T12:48:24;3.20;85.40
4755;DHT22;2391;47.212;7.542;2023-02-28T12:50:50;3.10;85.10
4755;DHT22;2391;47.212;7.542;2023-02-28T12:58:47;3.20;85.20
4755;DHT22;2391;47.212;7.542;2023-02-28T13:09:41;3.10;85.30
4755;DHT22;2391;47.212;7.542;2023-02-28T13:12:13;3.10;85.30
4755;DHT22;2391;47.212;7.542;2023-02-28T13:14:40;3.10;84.80
4755;DHT22;2391;47.212;7.542;2023-02-28T13:17:11;3.10;85.20
4755;DHT22;2391;47.212;7.542;2023-02-28T13:19:42;3.20;85.30
4755;DHT22;2391;47.212;7.542;2023-02-28T13:24:49;3.30;85.00
4755;DHT22;2391;47.212;7.542;2023-02-28T13:30:49;3.40;84.90
4755;DHT22;2391;47.212;7.542;2023-02-28T13:32:31;3.30;85.10
4755;DHT22;2391;47.212;7.542;2023-02-28T13:37:35;3.30;84.80
4755;DHT22;2391;47.212;7.542;2023-02-28T13:42:48;3.20;84.50
4755;DHT22;2391;47.212;7.542;2023-02-28T13:45:27;3.10;85.10
4755;DHT22;2391;47.212;7.542;2023-02-28T13:47:55;3.10;85.30
4755;DHT22;2391;47.212;7.542;2023-02-28T13:50:36;3.20;85.40
4755;DHT22;2391;47.212;7.542;2023-02-28T13:55:49;3.20;85.80
4755;DHT22;2391;47.212;7.542;2023-02-28T14:06:53;3.20;85.20
4755;DHT22;2391;47.212;7.542;2023-02-28T14:09:25;3.20;85.00
4755;DHT22;2391;47.212;7.542;2023-02-28T14:11:52;3.30;85.10
4755;DHT22;2391;47.212;7.542;2023-02-28T14:17:08;3.10;84.90
4755;DHT22;2391;47.212;7.542;2023-02-28T14:19:36;3.10;84.80
4755;DHT22;2391;47.212;7.542;2023-02-28T14:25:08;3.10;84.90
4755;DHT22;2391;47.212;7.542;2023-02-28T14:33:22;3.20;85.20
4755;DHT22;2391;47.212;7.542;2023-02-28T14:36:18;3.20;85.10
4755;DHT22;2391;47.212;7.542;2023-02-28T14:39:12;3.30;85.20
4755;DHT22;2391;47.212;7.542;2023-02-28T14:41:41;3.30;85.20
4755;DHT22;2391;47.212;7.542;2023-02-28T14:44:21;3.20;84.80
4755;DHT22;2391;47.212;7.542;2023-02-28T14:46:53;3.20;84.70
4755;DHT22;2391;47.212;7.542;2023-02-28T14:49:31;3.20;84.60
4755;DHT22;2391;47.212;7.542;2023-02-28T14:54:37;3.00;84.90
4755;DHT22;2391;47.212;7.542;2023-02-28T14:57:04;3.00;85.00
4755;DHT22;2391;47.212;7.542;2023-02-28T14:59:33;3.00;84.90
4755;DHT22;2391;47.212;7.542;2023-02-28T15:02:16;3.00;84.60
4755;DHT22;2391;47.212;7.542;2023-02-28T15:04:42;2.90;84.40
4755;DHT22;2391;47.212;7.542;2023-02-28T15:07:13;2.80;84.70
4755;DHT22;2391;47.212;7.542;2023-02-28T15:09:40;2.60;84.90
4755;DHT22;2391;47.212;7.542;2023-02-28T15:12:07;2.60;85.20
4755;DHT22;2391;47.212;7.542;2023-02-28T15:14:34;2.40;85.40
4755;DHT22;2391;47.212;7.542;2023-02-28T15:17:06;2.30;85.80
4755;DHT22;2391;47.212;7.542;2023-02-28T15:19:36;2.20;86.30
4755;DHT22;2391;47.212;7.542;2023-02-28T15:22:08;2.30;86.60
4755;DHT22;2391;47.212;7.542;2023-02-28T15:24:37;2.30;86.60
4755;DHT22;2391;47.212;7.542;2023-02-28T15:27:07;2.40;86.10
4755;DHT22;2391;47.212;7.542;2023-02-28T15:29:46;2.50;86.00
4755;DHT22;2391;47.212;7.542;2023-02-28T15:34:57;2.30;86.20
4755;DHT22;2391;47.212;7.542;2023-02-28T15:37:45;2.10;86.60
4755;DHT22;2391;47.212;7.542;2023-02-28T15:42:57;2.10;86.70
4755;DHT22;2391;47.212;7.542;2023-02-28T15:45:35;2.00;86.80
4755;DHT22;2391;47.212;7.542;2023-02-28T15:48:02;2.10;87.00
4755;DHT22;2391;47.212;7.542;2023-02-28T15:50:28;2.10;86.70
4755;DHT22;2391;47.212;7.542;2023-02-28T15:52:55;2.10;87.10
4755;DHT22;2391;47.212;7.542;2023-02-28T15:55:24;2.10;87.10
4755;DHT22;2391;47.212;7.542;2023-02-28T15:57:56;2.10;87.10
4755;DHT22;2391;47.212;7.542;2023-02-28T16:00:26;2.10;86.60
4755;DHT22;2391;47.212;7.542;2023-02-28T16:02:52;2.10;86.80
4755;DHT22;2391;47.212;7.542;2023-02-28T16:05:30;2.10;87.00
4755;DHT22;2391;47.212;7.542;2023-02-28T16:07:56;2.00;86.90
4755;DHT22;2391;47.212;7.542;2023-02-28T16:10:24;1.90;87.00
4755;DHT22;2391;47.212;7.542;2023-02-28T16:12:53;1.90;87.30
4755;DHT22;2391;47.212;7.542;2023-02-28T16:15:23;2.00;87.40
4755;DHT22;2391;47.212;7.542;2023-02-28T16:17:52;1.90;87.50
4755;DHT22;2391;47.212;7.542;2023-02-28T16:20:28;1.80;87.70
4755;DHT22;2391;47.212;7.542;2023-02-28T16:22:51;1.80;87.70
4755;DHT22;2391;47.212;7.542;2023-02-28T16:25:23;1.70;87.80
4755;DHT22;2391;47.212;7.542;2023-02-28T16:27:49;1.80;88.00
4755;DHT22;2391;47.212;7.542;2023-02-28T16:30:24;1.70;88.00
4755;DHT22;2391;47.212;7.542;2023-02-28T16:32:53;1.80;88.20
4755;DHT22;2391;47.212;7.542;2023-02-28T16:35:20;1.70;88.20
4755;DHT22;2391;47.212;7.542;2023-02-28T16:37:45;1.80;88.50
4755;DHT22;2391;47.212;7.542;2023-02-28T16:40:20;1.90;88.60
4755;DHT22;2391;47.212;7.542;2023-02-28T16:42:48;1.90;88.50
4755;DHT22;2391;47.212;7.542;2023-02-28T16:45:18;1.90;88.20
4755;DHT22;2391;47.212;7.542;2023-02-28T16:47:45;1.90;88.00
4755;DHT22;2391;47.212;7.542;2023-02-28T16:50:19;1.90;88.20
4755;DHT22;2391;47.212;7.542;2023-02-28T16:52:43;1.80;88.70
4755;DHT22;2391;47.212;7.542;2023-02-28T16:55:10;1.80;89.00
4755;DHT22;2391;47.212;7.542;2023-02-28T16:57:36;1.90;88.70
4755;DHT22;2391;47.212;7.542;2023-02-28T17:00:03;1.90;88.20
4755;DHT22;2391;47.212;7.542;2023-02-28T17:02:29;2.00;88.10
4755;DHT22;2391;47.212;7.542;2023-02-28T17:04:55;2.00;88.20
4755;DHT22;2391;47.212;7.542;2023-02-28T17:07:21;2.00;88.30
4755;DHT22;2391;47.212;7.542;2023-02-28T17:09:47;2.10;88.20
4755;DHT22;2391;47.212;7.542;2023-02-28T17:12:13;2.00;88.60
4755;DHT22;2391;47.212;7.542;2023-02-28T17:14:40;1.90;88.30
4755;DHT22;2391;47.212;7.542;2023-02-28T17:17:06;1.80;88.70
4755;DHT22;2391;47.212;7.542;2023-02-28T17:19:32;1.80;88.90
4755;DHT22;2391;47.212;7.542;2023-02-28T17:21:59;1.90;88.90
4755;DHT22;2391;47.212;7.542;2023-02-28T17:24:26;2.00;88.80
4755;DHT22;2391;47.212;7.542;2023-02-28T17:26:52;2.00;88.70
4755;DHT22;2391;47.212;7.542;2023-02-28T17:29:20;2.00;88.60
4755;DHT22;2391;47.212;7.542;2023-02-28T17:31:47;2.00;88.70
4755;DHT22;2391;47.212;7.542;2023-02-28T17:34:13;2.00;88.60
4755;DHT22;2391;47.212;7.542;2023-02-28T17:36:41;2.20;88.60
4755;DHT22;2391;47.212;7.542;2023-02-28T17:39:09;2.20;88.20
4755;DHT22;2391;47.212;7.542;2023-02-28T17:41:35;2.30;88.10
4755;DHT22;2391;47.212;7.542;2023-02-28T17:44:01;2.30;88.00
4755;DHT22;2391;47.212;7.542;2023-02-28T17:46:27;2.20;88.20
4755;DHT22;2391;47.212;7.542;2023-02-28T17:48:54;2.20;88.60
4755;DHT22;2391;47.212;7.542;2023-02-28T17:51:21;2.20;88.80
4755;DHT22;2391;47.212;7.542;2023-02-28T17:53:47;2.20;88.80
4755;DHT22;2391;47.212;7.542;2023-02-28T17:56:20;2.20;88.60
4755;DHT22;2391;47.212;7.542;2023-02-28T17:58:46;2.20;88.30
4755;DHT22;2391;47.212;7.542;2023-02-28T18:01:12;2.20;88.20
4755;DHT22;2391;47.212;7.542;2023-02-28T18:03:38;2.10;88.00
4755;DHT22;2391;47.212;7.542;2023-02-28T18:06:05;2.00;88.20
4755;DHT22;2391;47.212;7.542;2023-02-28T18:08:32;2.00;88.10
4755;DHT22;2391;47.212;7.542;2023-02-28T18:11:01;2.00;88.20
4755;DHT22;2391;47.212;7.542;2023-02-28T18:13:29;2.10;88.20
4755;DHT22;2391;47.212;7.542;2023-02-28T18:15:56;2.20;88.00
4755;DHT22;2391;47.212;7.542;2023-02-28T18:18:21;2.20;88.30
4755;DHT22;2391;47.212;7.542;2023-02-28T18:20:47;2.20;87.70
4755;DHT22;2391;47.212;7.542;2023-02-28T18:23:15;2.20;87.60
4755;DHT22;2391;47.212;7.542;2023-02-28T18:25:43;2.30;87.60
4755;DHT22;2391;47.212;7.542;2023-02-28T18:28:08;2.30;87.30
4755;DHT22;2391;47.212;7.542;2023-02-28T18:30:36;2.30;87.30
4755;DHT22;2391;47.212;7.542;2023-02-28T18:33:03;2.40;87.10
4755;DHT22;2391;47.212;7.542;2023-02-28T18:35:30;2.30;86.90
4755;DHT22;2391;47.212;7.542;2023-02-28T18:38:05;2.30;87.30
4755;DHT22;2391;47.212;7.542;2023-02-28T18:40:31;2.30;87.30
4755;DHT22;2391;47.212;7.542;2023-02-28T18:42:58;2.30;87.30